sensor_id;sensor_type;location;lat;lon;timestamp;pressure;altitude;pressure_sealevel;temperature;humidity
17607;BME280;8922;52.240;20.980;2023-01-15T00:02:21;99636.94;;;5.48;65.65
17607;BME280;8922;52.240;20.980;2023-01-15T00:04:50;99624.16;;;5.48;65.17
17607;BME280;8922;52.240;20.980;2023-01-15T00:07:19;99617.34;;;5.52;65.52
17607;BME280;8922;52.240;20.980;2023-01-15T00:09:48;99618.22;;;5.51;65.78
17607;BME280;8922;52.240;20.980;2023-01-15T00:12:18;99596.09;;;5.53;65.03
17607;BME280;8922;52.240;20.980;2023-01-15T00:14:47;99589.28;;;5.53;65.16
17607;BME280;8922;52.240;20.980;2023-01-15T00:17:15;99592.66;;;5.54;64.93
17607;BME280;8922;52.240;20.980;2023-01-15T00:19:45;99582.47;;;5.52;64.88
17607;BME280;8922;52.240;20.980;2023-01-15T00:22:13;99575.66;;;5.53;64.96
17607;BME280;8922;52.240;20.980;2023-01-15T00:24:42;99581.59;;;5.53;64.80
17607;BME280;8922;52.240;20.980;2023-01-15T00:27:29;99579.03;;;5.55;65.05
17607;BME280;8922;52.240;20.980;2023-01-15T00:30:10;99572.22;;;5.54;64.59
17607;BME280;8922;52.240;20.980;2023-01-15T00:32:40;99570.53;;;5.53;64.97
17607;BME280;8922;52.240;20.980;2023-01-15T00:35:12;99549.22;;;5.51;64.84
17607;BME280;8922;52.240;20.980;2023-01-15T00:37:41;99558.59;;;5.50;64.83
17607;BME280;8922;52.240;20.980;2023-01-15T00:40:11;99564.56;;;5.49;64.94
17607;BME280;8922;52.240;20.980;2023-01-15T00:42:41;99544.97;;;5.47;64.77
17607;BME280;8922;52.240;20.980;2023-01-15T00:45:20;99547.50;;;5.44;64.92
17607;BME280;8922;52.240;20.980;2023-01-15T00:47:49;99545.81;;;5.43;65.03
17607;BME280;8922;52.240;20.980;2023-01-15T00:50:18;99516.88;;;5.42;65.12
17607;BME280;8922;52.240;20.980;2023-01-15T00:52:46;99535.56;;;5.37;65.50
17607;BME280;8922;52.240;20.980;2023-01-15T00:55:15;99529.63;;;5.39;65.31
17607;BME280;8922;52.240;20.980;2023-01-15T00:57:45;99527.94;;;5.38;65.19
17607;BME280;8922;52.240;20.980;2023-01-15T01:02:42;99521.13;;;5.39;65.12
17607;BME280;8922;52.240;20.980;2023-01-15T01:05:11;99515.13;;;5.37;64.67
17607;BME280;8922;52.240;20.980;2023-01-15T01:07:39;99516.00;;;5.36;65.10
17607;BME280;8922;52.240;20.980;2023-01-15T01:10:09;99527.91;;;5.33;65.24
17607;BME280;8922;52.240;20.980;2023-01-15T01:12:37;99503.22;;;5.31;65.45
17607;BME280;8922;52.240;20.980;2023-01-15T01:15:09;99506.63;;;5.28;65.18
17607;BME280;8922;52.240;20.980;2023-01-15T01:17:38;99500.66;;;5.23;65.28
17607;BME280;8922;52.240;20.980;2023-01-15T01:20:08;99513.44;;;5.23;65.32
17607;BME280;8922;52.240;20.980;2023-01-15T01:22:37;99514.28;;;5.22;65.37
17607;BME280;8922;52.240;20.980;2023-01-15T01:25:07;99503.22;;;5.22;65.68
17607;BME280;8922;52.240;20.980;2023-01-15T01:27:35;99515.97;;;5.22;66.08
17607;BME280;8922;52.240;20.980;2023-01-15T01:30:07;99507.47;;;5.21;65.54
17607;BME280;8922;52.240;20.980;2023-01-15T01:32:36;99510.00;;;5.18;65.38
17607;BME280;8922;52.240;20.980;2023-01-15T01:35:05;99496.41;;;5.18;65.08
17607;BME280;8922;52.240;20.980;2023-01-15T01:37:34;99500.66;;;5.17;65.42
17607;BME280;8922;52.240;20.980;2023-01-15T01:40:03;99488.72;;;5.13;65.23
17607;BME280;8922;52.240;20.980;2023-01-15T01:42:33;99486.16;;;5.12;65.53
17607;BME280;8922;52.240;20.980;2023-01-15T01:45:10;99480.19;;;5.08;65.37
17607;BME280;8922;52.240;20.980;2023-01-15T01:47:44;99470.00;;;5.09;65.22
17607;BME280;8922;52.240;20.980;2023-01-15T01:50:13;99468.28;;;5.10;65.52
17607;BME280;8922;52.240;20.980;2023-01-15T01:52:46;99456.38;;;5.07;66.07
17607;BME280;8922;52.240;20.980;2023-01-15T01:55:18;99462.34;;;5.05;65.33
17607;BME280;8922;52.240;20.980;2023-01-15T01:57:47;99442.75;;;5.02;65.75
17607;BME280;8922;52.240;20.980;2023-01-15T02:00:19;99431.69;;;5.00;65.45
17607;BME280;8922;52.240;20.980;2023-01-15T02:02:51;99416.38;;;4.97;65.56
17607;BME280;8922;52.240;20.980;2023-01-15T02:05:28;99409.56;;;4.95;65.39
17607;BME280;8922;52.240;20.980;2023-01-15T02:07:58;99428.28;;;4.92;65.56
17607;BME280;8922;52.240;20.980;2023-01-15T02:10:27;99430.81;;;4.88;65.72
17607;BME280;8922;52.240;20.980;2023-01-15T02:13:01;99424.00;;;4.83;65.89
17607;BME280;8922;52.240;20.980;2023-01-15T02:15:37;99438.47;;;4.80;66.21
17607;BME280;8922;52.240;20.980;2023-01-15T02:18:14;99444.41;;;4.76;65.90
17607;BME280;8922;52.240;20.980;2023-01-15T02:20:49;99420.59;;;4.74;66.02
17607;BME280;8922;52.240;20.980;2023-01-15T02:23:39;99431.66;;;4.73;66.36
17607;BME280;8922;52.240;20.980;2023-01-15T02:29:46;99408.69;;;4.76;66.14
17607;BME280;8922;52.240;20.980;2023-01-15T02:32:25;99410.41;;;4.75;65.85
17607;BME280;8922;52.240;20.980;2023-01-15T02:35:03;99419.75;;;4.76;66.00
17607;BME280;8922;52.240;20.980;2023-01-15T02:37:38;99418.06;;;4.75;65.81
17607;BME280;8922;52.240;20.980;2023-01-15T02:40:10;99412.06;;;4.75;66.02
17607;BME280;8922;52.240;20.980;2023-01-15T02:42:43;99403.56;;;4.73;65.88
17607;BME280;8922;52.240;20.980;2023-01-15T02:45:16;99401.84;;;4.75;65.73
17607;BME280;8922;52.240;20.980;2023-01-15T02:47:52;99405.28;;;4.72;65.71
17607;BME280;8922;52.240;20.980;2023-01-15T02:50:25;99404.44;;;4.73;65.89
17607;BME280;8922;52.240;20.980;2023-01-15T02:53:00;99373.81;;;4.73;65.44
17607;BME280;8922;52.240;20.980;2023-01-15T02:55:35;99384.88;;;4.72;65.73
17607;BME280;8922;52.240;20.980;2023-01-15T02:58:15;99368.69;;;4.70;65.93
17607;BME280;8922;52.240;20.980;2023-01-15T03:00:48;99333.81;;;4.71;65.40
17607;BME280;8922;52.240;20.980;2023-01-15T03:03:25;99366.13;;;4.70;65.24
17607;BME280;8922;52.240;20.980;2023-01-15T03:06:03;99356.78;;;4.69;65.56
17607;BME280;8922;52.240;20.980;2023-01-15T03:08:33;99345.75;;;4.69;65.32
17607;BME280;8922;52.240;20.980;2023-01-15T03:11:07;99336.38;;;4.69;65.16
17607;BME280;8922;52.240;20.980;2023-01-15T03:13:46;99338.94;;;4.69;65.06
17607;BME280;8922;52.240;20.980;2023-01-15T03:16:22;99319.34;;;4.71;65.12
17607;BME280;8922;52.240;20.980;2023-01-15T03:19:12;99332.97;;;4.73;65.50
17607;BME280;8922;52.240;20.980;2023-01-15T03:21:49;99309.13;;;4.71;64.96
17607;BME280;8922;52.240;20.980;2023-01-15T03:24:29;99329.56;;;4.73;65.15
17607;BME280;8922;52.240;20.980;2023-01-15T03:27:00;99341.47;;;4.77;65.21
17607;BME280;8922;52.240;20.980;2023-01-15T03:29:33;99332.13;;;4.77;64.59
17607;BME280;8922;52.240;20.980;2023-01-15T03:32:04;99334.66;;;4.77;64.75
17607;BME280;8922;52.240;20.980;2023-01-15T03:34:37;99310.00;;;4.78;64.78
17607;BME280;8922;52.240;20.980;2023-01-15T03:37:07;99318.50;;;4.78;64.62
17607;BME280;8922;52.240;20.980;2023-01-15T03:39:36;99321.91;;;4.80;64.81
17607;BME280;8922;52.240;20.980;2023-01-15T03:42:17;99287.06;;;4.79;64.66
17607;BME280;8922;52.240;20.980;2023-01-15T03:44:56;99303.19;;;4.78;64.39
17607;BME280;8922;52.240;20.980;2023-01-15T03:47:35;99289.59;;;4.81;64.53
17607;BME280;8922;52.240;20.980;2023-01-15T03:50:17;99301.50;;;4.82;64.83
17607;BME280;8922;52.240;20.980;2023-01-15T03:52:56;99304.91;;;4.82;64.21
17607;BME280;8922;52.240;20.980;2023-01-15T03:55:38;99290.44;;;4.83;64.87
17607;BME280;8922;52.240;20.980;2023-01-15T03:58:12;99300.66;;;4.86;63.93
17607;BME280;8922;52.240;20.980;2023-01-15T04:00:45;99286.19;;;4.87;64.45
17607;BME280;8922;52.240;20.980;2023-01-15T04:03:17;99259.81;;;4.88;63.89
17607;BME280;8922;52.240;20.980;2023-01-15T04:05:47;99270.88;;;4.87;63.64
17607;BME280;8922;52.240;20.980;2023-01-15T04:08:17;99276.81;;;4.87;64.36
17607;BME280;8922;52.240;20.980;2023-01-15T04:10:51;99252.16;;;4.84;64.24
17607;BME280;8922;52.240;20.980;2023-01-15T04:13:20;99241.94;;;4.84;64.21
17607;BME280;8922;52.240;20.980;2023-01-15T04:15:51;99256.41;;;4.84;64.53
17607;BME280;8922;52.240;20.980;2023-01-15T04:18:20;99262.38;;;4.83;64.46
17607;BME280;8922;52.240;20.980;2023-01-15T04:20:49;99259.81;;;4.81;64.60
17607;BME280;8922;52.240;20.980;2023-01-15T04:23:17;99219.84;;;4.80;64.36
17607;BME280;8922;52.240;20.980;2023-01-15T04:25:46;99247.03;;;4.84;64.27
17607;BME280;8922;52.240;20.980;2023-01-15T04:28:14;99235.97;;;4.85;64.52
17607;BME280;8922;52.240;20.980;2023-01-15T04:30:43;99215.56;;;4.84;64.02
17607;BME280;8922;52.240;20.980;2023-01-15T04:33:13;99227.50;;;4.83;64.31
17607;BME280;8922;52.240;20.980;2023-01-15T04:35:42;99200.25;;;4.81;64.04
17607;BME280;8922;52.240;20.980;2023-01-15T04:38:13;99188.38;;;4.75;63.58
17607;BME280;8922;52.240;20.980;2023-01-15T04:40:41;99195.19;;;4.79;64.06
17607;BME280;8922;52.240;20.980;2023-01-15T04:43:26;99201.09;;;4.78;64.38
17607;BME280;8922;52.240;20.980;2023-01-15T04:46:12;99211.31;;;4.78;63.69
17607;BME280;8922;52.240;20.980;2023-01-15T04:48:42;99193.47;;;4.80;63.67
17607;BME280;8922;52.240;20.980;2023-01-15T04:51:11;99173.91;;;4.80;64.11
17607;BME280;8922;52.240;20.980;2023-01-15T04:53:39;99179.84;;;4.81;63.38
17607;BME280;8922;52.240;20.980;2023-01-15T04:56:08;99179.00;;;4.83;63.15
17607;BME280;8922;52.240;20.980;2023-01-15T04:58:36;99185.78;;;4.81;63.48
17607;BME280;8922;52.240;20.980;2023-01-15T05:01:10;99178.97;;;4.85;63.45
17607;BME280;8922;52.240;20.980;2023-01-15T05:03:39;99181.53;;;4.87;63.46
17607;BME280;8922;52.240;20.980;2023-01-15T05:06:09;99173.88;;;4.88;63.40
17607;BME280;8922;52.240;20.980;2023-01-15T05:08:40;99165.34;;;4.89;63.24
17607;BME280;8922;52.240;20.980;2023-01-15T05:11:09;99166.22;;;4.87;63.13
17607;BME280;8922;52.240;20.980;2023-01-15T05:13:37;99154.31;;;4.90;63.27
17607;BME280;8922;52.240;20.980;2023-01-15T05:16:12;99162.78;;;4.92;63.02
17607;BME280;8922;52.240;20.980;2023-01-15T05:18:42;99161.09;;;4.93;62.83
17607;BME280;8922;52.240;20.980;2023-01-15T05:21:17;99156.84;;;4.98;63.29
17607;BME280;8922;52.240;20.980;2023-01-15T05:23:48;99140.66;;;4.99;63.15
17607;BME280;8922;52.240;20.980;2023-01-15T05:26:18;99137.25;;;5.00;63.30
17607;BME280;8922;52.240;20.980;2023-01-15T05:28:48;99125.34;;;4.99;63.05
17607;BME280;8922;52.240;20.980;2023-01-15T05:31:20;99152.56;;;5.04;62.97
17607;BME280;8922;52.240;20.980;2023-01-15T05:33:49;99143.16;;;5.08;62.79
17607;BME280;8922;52.240;20.980;2023-01-15T05:36:22;99140.59;;;5.08;62.66
17607;BME280;8922;52.240;20.980;2023-01-15T05:38:53;99142.31;;;5.09;62.50
17607;BME280;8922;52.240;20.980;2023-01-15T05:41:21;99131.25;;;5.10;62.42
17607;BME280;8922;52.240;20.980;2023-01-15T05:44:10;99154.22;;;5.16;62.23
17607;BME280;8922;52.240;20.980;2023-01-15T05:46:40;99139.72;;;5.18;61.85
17607;BME280;8922;52.240;20.980;2023-01-15T05:49:14;99157.59;;;5.23;61.83
17607;BME280;8922;52.240;20.980;2023-01-15T05:51:44;99158.44;;;5.23;62.07
17607;BME280;8922;52.240;20.980;2023-01-15T05:54:15;99151.59;;;5.25;61.71
17607;BME280;8922;52.240;20.980;2023-01-15T05:56:44;99143.09;;;5.26;61.67
17607;BME280;8922;52.240;20.980;2023-01-15T05:59:14;99138.84;;;5.28;61.88
17607;BME280;8922;52.240;20.980;2023-01-15T06:01:43;99128.63;;;5.28;61.39
17607;BME280;8922;52.240;20.980;2023-01-15T06:04:13;99134.56;;;5.30;61.61
17607;BME280;8922;52.240;20.980;2023-01-15T06:06:44;99134.56;;;5.29;61.36
17607;BME280;8922;52.240;20.980;2023-01-15T06:09:12;99121.78;;;5.29;61.91
17607;BME280;8922;52.240;20.980;2023-01-15T06:11:41;99120.09;;;5.31;61.99
17607;BME280;8922;52.240;20.980;2023-01-15T06:14:10;99113.28;;;5.30;61.99
17607;BME280;8922;52.240;20.980;2023-01-15T06:16:39;99116.69;;;5.30;61.82
17607;BME280;8922;52.240;20.980;2023-01-15T06:19:10;99104.75;;;5.32;62.48
17607;BME280;8922;52.240;20.980;2023-01-15T06:21:39;99108.16;;;5.30;62.27
17607;BME280;8922;52.240;20.980;2023-01-15T06:24:10;99098.81;;;5.30;62.18
17607;BME280;8922;52.240;20.980;2023-01-15T06:26:38;99092.00;;;5.28;62.33
17607;BME280;8922;52.240;20.980;2023-01-15T06:29:07;99088.63;;;5.27;62.45
17607;BME280;8922;52.240;20.980;2023-01-15T06:31:35;99096.28;;;5.27;62.61
17607;BME280;8922;52.240;20.980;2023-01-15T06:34:04;99087.78;;;5.27;62.50
17607;BME280;8922;52.240;20.980;2023-01-15T06:36:32;99089.44;;;5.29;62.08
17607;BME280;8922;52.240;20.980;2023-01-15T06:39:01;99097.97;;;5.31;62.37
17607;BME280;8922;52.240;20.980;2023-01-15T06:41:32;99112.41;;;5.32;62.46
17607;BME280;8922;52.240;20.980;2023-01-15T06:44:18;99104.75;;;5.34;62.42
17607;BME280;8922;52.240;20.980;2023-01-15T06:47:13;99107.28;;;5.36;62.62
17607;BME280;8922;52.240;20.980;2023-01-15T06:49:50;99096.22;;;5.38;62.70
17607;BME280;8922;52.240;20.980;2023-01-15T06:52:19;99085.97;;;5.40;63.03
17607;BME280;8922;52.240;20.980;2023-01-15T06:54:47;99084.25;;;5.43;62.70
17607;BME280;8922;52.240;20.980;2023-01-15T06:57:18;99075.72;;;5.44;63.47
17607;BME280;8922;52.240;20.980;2023-01-15T06:59:47;99071.47;;;5.46;63.36
17607;BME280;8922;52.240;20.980;2023-01-15T07:02:16;99069.78;;;5.44;62.99
17607;BME280;8922;52.240;20.980;2023-01-15T07:04:45;99088.50;;;5.49;64.00
17607;BME280;8922;52.240;20.980;2023-01-15T07:07:14;99075.72;;;5.49;64.36
17607;BME280;8922;52.240;20.980;2023-01-15T07:09:44;99092.72;;;5.48;64.50
17607;BME280;8922;52.240;20.980;2023-01-15T07:12:13;99058.72;;;5.43;64.42
17607;BME280;8922;52.240;20.980;2023-01-15T07:14:43;99074.88;;;5.44;64.61
17607;BME280;8922;52.240;20.980;2023-01-15T07:17:11;99069.78;;;5.42;65.01
17607;BME280;8922;52.240;20.980;2023-01-15T07:19:42;99072.34;;;5.41;64.91
17607;BME280;8922;52.240;20.980;2023-01-15T07:22:11;99073.22;;;5.40;65.51
17607;BME280;8922;52.240;20.980;2023-01-15T07:24:39;99075.75;;;5.40;65.59
17607;BME280;8922;52.240;20.980;2023-01-15T07:27:08;99066.41;;;5.39;65.34
17607;BME280;8922;52.240;20.980;2023-01-15T07:29:36;99057.03;;;5.39;65.58
17607;BME280;8922;52.240;20.980;2023-01-15T07:32:07;99063.00;;;5.37;65.67
17607;BME280;8922;52.240;20.980;2023-01-15T07:34:35;99058.72;;;5.40;65.82
17607;BME280;8922;52.240;20.980;2023-01-15T07:37:03;99042.56;;;5.37;66.09
17607;BME280;8922;52.240;20.980;2023-01-15T07:39:32;99046.81;;;5.39;65.70
17607;BME280;8922;52.240;20.980;2023-01-15T07:42:00;99052.78;;;5.40;66.27
17607;BME280;8922;52.240;20.980;2023-01-15T07:44:46;99051.06;;;5.42;65.90
17607;BME280;8922;52.240;20.980;2023-01-15T07:47:45;99041.66;;;5.44;65.63
17607;BME280;8922;52.240;20.980;2023-01-15T07:50:31;99047.66;;;5.43;66.37
17607;BME280;8922;52.240;20.980;2023-01-15T07:52:59;99035.69;;;5.45;66.14
17607;BME280;8922;52.240;20.980;2023-01-15T07:55:28;99029.75;;;5.46;66.37
17607;BME280;8922;52.240;20.980;2023-01-15T07:57:57;99035.69;;;5.48;66.48
17607;BME280;8922;52.240;20.980;2023-01-15T08:00:25;99029.72;;;5.50;66.57
17607;BME280;8922;52.240;20.980;2023-01-15T08:02:55;99035.66;;;5.52;66.73
17607;BME280;8922;52.240;20.980;2023-01-15T08:05:24;99034.78;;;5.55;67.00
17607;BME280;8922;52.240;20.980;2023-01-15T08:07:53;99042.41;;;5.58;66.56
17607;BME280;8922;52.240;20.980;2023-01-15T08:10:21;99038.16;;;5.60;66.86
17607;BME280;8922;52.240;20.980;2023-01-15T08:12:51;99029.59;;;5.64;66.71
17607;BME280;8922;52.240;20.980;2023-01-15T08:15:39;99026.16;;;5.67;67.16
17607;BME280;8922;52.240;20.980;2023-01-15T08:18:11;99038.06;;;5.72;67.15
17607;BME280;8922;52.240;20.980;2023-01-15T08:20:40;99040.59;;;5.72;66.88
17607;BME280;8922;52.240;20.980;2023-01-15T08:23:08;99031.22;;;5.76;67.25
17607;BME280;8922;52.240;20.980;2023-01-15T08:25:37;99026.06;;;5.79;67.60
17607;BME280;8922;52.240;20.980;2023-01-15T08:28:06;99026.91;;;5.79;67.42
17607;BME280;8922;52.240;20.980;2023-01-15T08:30:34;99034.56;;;5.82;67.41
17607;BME280;8922;52.240;20.980;2023-01-15T08:33:03;99023.50;;;5.82;67.61
17607;BME280;8922;52.240;20.980;2023-01-15T08:35:33;99027.72;;;5.85;67.70
17607;BME280;8922;52.240;20.980;2023-01-15T08:38:04;99024.25;;;5.89;68.09
17607;BME280;8922;52.240;20.980;2023-01-15T08:40:33;99031.91;;;5.92;67.66
17607;BME280;8922;52.240;20.980;2023-01-15T08:43:22;99022.56;;;5.94;67.61
17607;BME280;8922;52.240;20.980;2023-01-15T08:45:51;99023.41;;;5.94;67.58
17607;BME280;8922;52.240;20.980;2023-01-15T08:48:20;99012.31;;;5.97;67.66
17607;BME280;8922;52.240;20.980;2023-01-15T08:50:49;99027.63;;;5.98;67.49
17607;BME280;8922;52.240;20.980;2023-01-15T08:53:18;99019.94;;;6.00;67.48
17607;BME280;8922;52.240;20.980;2023-01-15T08:55:47;99014.81;;;6.01;67.26
17607;BME280;8922;52.240;20.980;2023-01-15T08:58:16;99009.69;;;6.03;66.87
17607;BME280;8922;52.240;20.980;2023-01-15T09:00:44;99015.63;;;6.05;67.91
17607;BME280;8922;52.240;20.980;2023-01-15T09:03:14;99017.31;;;6.08;67.67
17607;BME280;8922;52.240;20.980;2023-01-15T09:05:43;99017.31;;;6.09;67.55
17607;BME280;8922;52.240;20.980;2023-01-15T09:08:13;99014.72;;;6.12;67.87
17607;BME280;8922;52.240;20.980;2023-01-15T09:10:41;98998.47;;;6.15;67.88
17607;BME280;8922;52.240;20.980;2023-01-15T09:13:09;99012.09;;;6.17;67.58
17607;BME280;8922;52.240;20.980;2023-01-15T09:15:38;99006.16;;;6.16;67.42
17607;BME280;8922;52.240;20.980;2023-01-15T09:18:06;99003.59;;;6.16;68.43
17607;BME280;8922;52.240;20.980;2023-01-15T09:20:36;98998.47;;;6.16;67.83
17607;BME280;8922;52.240;20.980;2023-01-15T09:23:05;98998.47;;;6.16;68.41
17607;BME280;8922;52.240;20.980;2023-01-15T09:25:35;98993.34;;;6.16;68.50
17607;BME280;8922;52.240;20.980;2023-01-15T09:28:03;98995.06;;;6.16;68.58
17607;BME280;8922;52.240;20.980;2023-01-15T09:30:32;98990.81;;;6.16;68.47
17607;BME280;8922;52.240;20.980;2023-01-15T09:33:00;98993.34;;;6.15;69.46
17607;BME280;8922;52.240;20.980;2023-01-15T09:35:29;98985.69;;;6.16;68.78
17607;BME280;8922;52.240;20.980;2023-01-15T09:37:57;98986.56;;;6.14;68.90
17607;BME280;8922;52.240;20.980;2023-01-15T09:40:46;98992.53;;;6.13;69.56
17607;BME280;8922;52.240;20.980;2023-01-15T09:43:32;98988.31;;;6.12;69.49
17607;BME280;8922;52.240;20.980;2023-01-15T09:46:22;98978.94;;;6.09;69.32
17607;BME280;8922;52.240;20.980;2023-01-15T09:49:00;98983.22;;;6.09;69.32
17607;BME280;8922;52.240;20.980;2023-01-15T09:51:37;98986.66;;;6.08;69.55
17607;BME280;8922;52.240;20.980;2023-01-15T09:54:22;98984.09;;;6.06;69.94
17607;BME280;8922;52.240;20.980;2023-01-15T09:57:00;98973.00;;;6.05;70.00
17607;BME280;8922;52.240;20.980;2023-01-15T09:59:33;98980.66;;;6.07;70.36
17607;BME280;8922;52.240;20.980;2023-01-15T10:02:12;98972.97;;;6.07;70.24
17607;BME280;8922;52.240;20.980;2023-01-15T10:04:48;98965.38;;;6.04;70.49
17607;BME280;8922;52.240;20.980;2023-01-15T10:07:25;98969.63;;;6.05;70.76
17607;BME280;8922;52.240;20.980;2023-01-15T10:10:00;98959.41;;;6.02;70.38
17607;BME280;8922;52.240;20.980;2023-01-15T10:12:32;98964.53;;;6.02;70.48
17607;BME280;8922;52.240;20.980;2023-01-15T10:15:21;98956.88;;;5.99;71.00
17607;BME280;8922;52.240;20.980;2023-01-15T10:17:53;98971.34;;;6.00;70.77
17607;BME280;8922;52.240;20.980;2023-01-15T10:23:49;98956.88;;;5.99;71.27
17607;BME280;8922;52.240;20.980;2023-01-15T10:26:31;98933.91;;;5.97;70.94
17607;BME280;8922;52.240;20.980;2023-01-15T10:29:11;98944.06;;;6.02;71.27
17607;BME280;8922;52.240;20.980;2023-01-15T10:31:53;98955.97;;;6.03;71.59
17607;BME280;8922;52.240;20.980;2023-01-15T10:35:00;98936.38;;;6.05;71.10
17607;BME280;8922;52.240;20.980;2023-01-15T10:37:40;98941.50;;;6.05;71.09
17607;BME280;8922;52.240;20.980;2023-01-15T10:40:32;98923.59;;;6.05;71.58
17607;BME280;8922;52.240;20.980;2023-01-15T10:43:10;98928.66;;;6.08;71.11
17607;BME280;8922;52.240;20.980;2023-01-15T10:45:47;98936.34;;;6.08;71.42
17607;BME280;8922;52.240;20.980;2023-01-15T10:48:27;98908.22;;;6.08;71.50
17607;BME280;8922;52.240;20.980;2023-01-15T10:51:01;98931.22;;;6.08;71.70
17607;BME280;8922;52.240;20.980;2023-01-15T10:53:34;98929.50;;;6.07;71.74
17607;BME280;8922;52.240;20.980;2023-01-15T10:56:12;98924.41;;;6.07;72.08
17607;BME280;8922;52.240;20.980;2023-01-15T10:58:48;98922.72;;;6.06;72.16
17607;BME280;8922;52.240;20.980;2023-01-15T11:01:24;98927.81;;;6.08;72.04
17607;BME280;8922;52.240;20.980;2023-01-15T11:03:54;98912.47;;;6.06;72.73
17607;BME280;8922;52.240;20.980;2023-01-15T11:06:23;98916.75;;;6.05;72.81
17607;BME280;8922;52.240;20.980;2023-01-15T11:08:55;98912.47;;;6.06;72.56
17607;BME280;8922;52.240;20.980;2023-01-15T11:11:42;98911.63;;;6.07;72.61
17607;BME280;8922;52.240;20.980;2023-01-15T11:14:35;98903.13;;;6.05;72.98
17607;BME280;8922;52.240;20.980;2023-01-15T11:17:27;98901.41;;;6.05;73.19
17607;BME280;8922;52.240;20.980;2023-01-15T11:20:28;98911.66;;;6.05;73.08
17607;BME280;8922;52.240;20.980;2023-01-15T11:23:07;98914.19;;;6.05;73.76
17607;BME280;8922;52.240;20.980;2023-01-15T11:25:38;98886.94;;;6.03;73.53
17607;BME280;8922;52.240;20.980;2023-01-15T11:28:10;98899.69;;;6.08;73.32
17607;BME280;8922;52.240;20.980;2023-01-15T11:30:42;98895.44;;;6.08;73.47
17607;BME280;8922;52.240;20.980;2023-01-15T11:33:26;98893.69;;;6.10;73.61
17607;BME280;8922;52.240;20.980;2023-01-15T11:35:59;98907.28;;;6.14;73.92
17607;BME280;8922;52.240;20.980;2023-01-15T11:38:36;98894.50;;;6.14;73.63
17607;BME280;8922;52.240;20.980;2023-01-15T11:41:20;98895.34;;;6.14;73.68
17607;BME280;8922;52.240;20.980;2023-01-15T11:43:56;98892.81;;;6.13;73.45
17607;BME280;8922;52.240;20.980;2023-01-15T11:46:45;98878.31;;;6.13;73.63
17607;BME280;8922;52.240;20.980;2023-01-15T11:49:32;98880.88;;;6.13;73.66
17607;BME280;8922;52.240;20.980;2023-01-15T11:52:21;98873.19;;;6.13;73.91
17607;BME280;8922;52.240;20.980;2023-01-15T11:54:53;98888.50;;;6.16;73.79
17607;BME280;8922;52.240;20.980;2023-01-15T11:57:26;98871.47;;;6.14;73.58
17607;BME280;8922;52.240;20.980;2023-01-15T11:59:56;98874.03;;;6.15;74.12
17607;BME280;8922;52.240;20.980;2023-01-15T12:02:32;98883.38;;;6.16;73.32
17607;BME280;8922;52.240;20.980;2023-01-15T12:05:14;98868.03;;;6.16;73.36
17607;BME280;8922;52.240;20.980;2023-01-15T12:07:44;98862.06;;;6.17;74.03
17607;BME280;8922;52.240;20.980;2023-01-15T12:10:19;98860.38;;;6.15;74.14
17607;BME280;8922;52.240;20.980;2023-01-15T12:13:20;98875.72;;;6.15;73.52
17607;BME280;8922;52.240;20.980;2023-01-15T12:15:58;98880.91;;;6.12;73.71
17607;BME280;8922;52.240;20.980;2023-01-15T12:18:55;98865.53;;;6.13;73.83
17607;BME280;8922;52.240;20.980;2023-01-15T12:21:58;98860.44;;;6.12;74.14
17607;BME280;8922;52.240;20.980;2023-01-15T12:25:02;98864.69;;;6.11;74.03
17607;BME280;8922;52.240;20.980;2023-01-15T12:27:57;98865.53;;;6.13;74.06
17607;BME280;8922;52.240;20.980;2023-01-15T12:30:38;98868.06;;;6.13;73.86
17607;BME280;8922;52.240;20.980;2023-01-15T12:33:22;98881.69;;;6.15;74.47
17607;BME280;8922;52.240;20.980;2023-01-15T12:35:59;98871.47;;;6.15;73.87
17607;BME280;8922;52.240;20.980;2023-01-15T12:38:45;98867.09;;;6.22;74.41
17607;BME280;8922;52.240;20.980;2023-01-15T12:41:21;98885.00;;;6.23;74.27
17607;BME280;8922;52.240;20.980;2023-01-15T12:43:55;98874.78;;;6.23;73.80
17607;BME280;8922;52.240;20.980;2023-01-15T12:46:43;98872.25;;;6.20;73.49
17607;BME280;8922;52.240;20.980;2023-01-15T12:49:26;98874.78;;;6.23;74.17
17607;BME280;8922;52.240;20.980;2023-01-15T12:52:03;98878.22;;;6.22;74.00
17607;BME280;8922;52.240;20.980;2023-01-15T12:54:40;98878.13;;;6.27;73.62
17607;BME280;8922;52.240;20.980;2023-01-15T12:57:20;98867.03;;;6.28;73.82
17607;BME280;8922;52.240;20.980;2023-01-15T12:59:56;98876.38;;;6.29;73.00
17607;BME280;8922;52.240;20.980;2023-01-15T13:02:36;98874.66;;;6.29;73.47
17607;BME280;8922;52.240;20.980;2023-01-15T13:05:18;98878.09;;;6.28;73.02
17607;BME280;8922;52.240;20.980;2023-01-15T13:07:53;98872.91;;;6.35;73.34
17607;BME280;8922;52.240;20.980;2023-01-15T13:10:28;98883.16;;;6.35;72.71
17607;BME280;8922;52.240;20.980;2023-01-15T13:13:13;98862.66;;;6.38;72.32
17607;BME280;8922;52.240;20.980;2023-01-15T13:15:59;98872.88;;;6.38;72.81
17607;BME280;8922;52.240;20.980;2023-01-15T13:18:38;98871.94;;;6.43;72.71
17607;BME280;8922;52.240;20.980;2023-01-15T13:21:13;98865.09;;;6.45;72.29
17607;BME280;8922;52.240;20.980;2023-01-15T13:24:11;98876.97;;;6.49;72.11
17607;BME280;8922;52.240;20.980;2023-01-15T13:26:59;98867.53;;;6.53;72.13
17607;BME280;8922;52.240;20.980;2023-01-15T13:29:42;98867.50;;;6.56;71.42
17607;BME280;8922;52.240;20.980;2023-01-15T13:32:17;98876.91;;;6.56;71.81
17607;BME280;8922;52.240;20.980;2023-01-15T13:34:50;98878.56;;;6.58;71.56
17607;BME280;8922;52.240;20.980;2023-01-15T13:37:25;98870.03;;;6.59;71.08
17607;BME280;8922;52.240;20.980;2023-01-15T13:39:59;98880.22;;;6.61;70.45
17607;BME280;8922;52.240;20.980;2023-01-15T13:42:31;98881.03;;;6.64;70.58
17607;BME280;8922;52.240;20.980;2023-01-15T13:45:19;98878.47;;;6.64;70.37
17607;BME280;8922;52.240;20.980;2023-01-15T13:47:57;98872.44;;;6.68;70.67
17607;BME280;8922;52.240;20.980;2023-01-15T13:50:31;98879.25;;;6.71;70.40
17607;BME280;8922;52.240;20.980;2023-01-15T13:53:08;98867.28;;;6.71;70.02
17607;BME280;8922;52.240;20.980;2023-01-15T13:55:49;98886.84;;;6.75;69.86
17607;BME280;8922;52.240;20.980;2023-01-15T13:58:25;98888.53;;;6.78;69.58